Time;durP1;ratioP1;P1;durP2;ratioP2;P2;SDS_P1;SDS_P2;PMS_P1;PMS_P2;Temp;Humidity;BMP_temperature;BMP_pressure;BME280_temperature;BME280_humidity;BME280_pressure;Samples;Min_cycle;Max_cycle;Signal;HPM_P1;HPM_P2
2023/09/21 00:01:07;;;;;;;;;4.25;4.00;;;;;19.19;68.47;99770.75;4990285;28;8942;-68
2023/09/21 00:03:34;;;;;;;;;3.00;3.00;;;;;19.16;68.36;99776.78;4983785;28;9687;-69
2023/09/21 00:06:02;;;;;;;;;4.25;3.00;;;;;19.14;68.29;99761.78;4987773;28;8855;-68
2023/09/21 00:08:29;;;;;;;;;1.00;1.00;;;;;19.17;68.27;99761.25;4972260;28;8872;-69
2023/09/21 00:10:58;;;;;;;;;2.00;2.00;;;;;19.21;68.22;99757.66;4982206;28;8831;-69
2023/09/21 00:13:31;;;;;;;;;1.75;1.75;;;;;19.20;68.12;99761.50;5023084;23;8828;-68
2023/09/21 00:15:59;;;;;;;;;2.00;2.00;;;;;19.17;68.27;99753.88;5010177;28;8847;-70
2023/09/21 00:18:27;;;;;;;;;2.75;2.75;;;;;19.20;68.10;99757.94;5010756;28;8893;-68
2023/09/21 00:20:54;;;;;;;;;1.00;1.00;;;;;19.19;68.38;99748.94;4993897;28;8913;-69
2023/09/21 00:23:25;;;;;;;;;1.25;1.25;;;;;19.18;68.38;99743.75;5006008;28;8837;-71
2023/09/21 00:25:57;;;;;;;;;3.00;2.00;;;;;19.20;68.24;99749.75;5009788;28;8850;-71
2023/09/21 00:28:25;;;;;;;;;2.00;2.00;;;;;19.23;68.42;99749.19;5009209;28;8851;-69
2023/09/21 00:30:57;;;;;;;;;2.75;1.75;;;;;19.22;68.35;99744.84;5011160;28;8827;-70
2023/09/21 00:33:25;;;;;;;;;4.50;3.50;;;;;19.20;68.36;99747.88;4991975;28;8867;-70
2023/09/21 00:35:52;;;;;;;;;1.25;1.25;;;;;19.16;68.22;99740.47;4994053;28;8886;-70
2023/09/21 00:38:24;;;;;;;;;3.75;3.00;;;;;19.18;68.50;99738.31;4993194;28;8949;-70
2023/09/21 00:40:56;;;;;;;;;1.50;1.50;;;;;19.16;68.62;99735.03;4990704;28;8839;-69
2023/09/21 00:43:25;;;;;;;;;3.00;3.00;;;;;19.17;68.43;99740.22;4990512;28;8842;-70
2023/09/21 00:45:54;;;;;;;;;2.50;2.50;;;;;19.17;68.61;99729.31;5010617;28;8848;-70
2023/09/21 00:48:25;;;;;;;;;2.00;2.00;;;;;19.17;68.67;99723.84;5010663;28;8834;-70
2023/09/21 00:50:54;;;;;;;;;1.25;1.25;;;;;19.19;68.35;99729.03;5003773;28;8833;-69
2023/09/21 00:53:22;;;;;;;;;2.75;2.75;;;;;19.20;68.61;99722.47;4997911;28;8850;-69
2023/09/21 00:55:52;;;;;;;;;3.25;3.00;;;;;19.24;68.56;99716.19;4994709;28;8909;-69
2023/09/21 00:58:21;;;;;;;;;2.00;2.00;;;;;19.19;68.51;99721.66;5009032;28;8889;-69
2023/09/21 01:00:49;;;;;;;;;3.00;3.00;;;;;19.20;68.61;99717.00;5010778;28;8925;-70
2023/09/21 01:03:17;;;;;;;;;2.00;2.00;;;;;19.19;68.37;99699.00;5008323;28;8850;-69
2023/09/21 01:05:45;;;;;;;;;3.00;2.50;;;;;19.21;68.44;99713.22;5012362;28;9542;-70
2023/09/21 01:08:18;;;;;;;;;2.00;2.00;;;;;19.20;68.61;99711.56;4975939;28;8827;-70
2023/09/21 01:10:49;;;;;;;;;2.00;2.00;;;;;19.24;68.61;99698.97;4993442;28;8859;-69
2023/09/21 01:13:17;;;;;;;;;2.25;2.25;;;;;19.21;68.65;99705.84;4989884;28;8833;-69
2023/09/21 01:16:11;;;;;;;;;2.00;2.00;;;;;19.25;68.63;99697.91;4990100;28;8861;-69
2023/09/21 01:18:41;;;;;;;;;1.25;1.25;;;;;19.21;68.70;99691.38;5000433;28;8831;-69
2023/09/21 01:21:10;;;;;;;;;1.50;1.00;;;;;19.19;68.78;99691.63;5002112;28;8843;-69
2023/09/21 01:23:49;;;;;;;;;2.00;2.00;;;;;19.21;68.90;99692.19;5007643;28;8823;-70
2023/09/21 01:26:18;;;;;;;;;2.00;2.00;;;;;19.19;68.73;99685.38;4998429;28;8843;-70
2023/09/21 01:28:47;;;;;;;;;2.75;2.00;;;;;19.22;68.82;99679.38;5009325;28;8866;-69
2023/09/21 01:31:15;;;;;;;;;3.00;1.00;;;;;19.26;68.81;99686.72;5010687;28;8847;-69
2023/09/21 01:33:42;;;;;;;;;4.25;3.25;;;;;19.25;68.79;99687.81;5013469;28;8835;-70
2023/09/21 01:36:12;;;;;;;;;1.00;0.25;;;;;19.27;68.93;99679.34;5013810;28;8863;-70
2023/09/21 01:38:39;;;;;;;;;3.00;2.25;;;;;19.29;68.85;99682.63;4996820;28;8864;-70
2023/09/21 01:41:07;;;;;;;;;2.00;2.00;;;;;19.28;68.95;99675.50;5011443;28;8828;-70
2023/09/21 01:43:35;;;;;;;;;3.00;2.00;;;;;19.31;68.83;99671.41;5012605;28;8919;-69
2023/09/21 01:46:01;;;;;;;;;2.00;2.00;;;;;19.31;68.90;99669.50;5016448;28;8949;-69
2023/09/21 01:48:28;;;;;;;;;1.25;1.00;;;;;19.31;69.01;99672.22;5015877;28;8827;-70
2023/09/21 01:50:57;;;;;;;;;2.50;1.75;;;;;19.32;68.89;99671.13;5017653;28;8815;-70
2023/09/21 01:53:24;;;;;;;;;1.00;1.00;;;;;19.32;69.00;99668.38;5017674;28;8851;-70
2023/09/21 01:55:51;;;;;;;;;1.50;1.50;;;;;19.32;68.96;99678.50;4998076;28;8842;-70
2023/09/21 01:58:22;;;;;;;;;1.75;1.75;;;;;19.25;69.00;99671.44;4983104;28;8933;-69
2023/09/21 02:00:49;;;;;;;;;1.25;1.25;;;;;19.29;69.01;99673.63;4998507;28;8851;-70
2023/09/21 02:03:18;;;;;;;;;2.00;2.00;;;;;19.24;68.98;99666.25;5009211;28;8816;-70
2023/09/21 02:05:48;;;;;;;;;2.00;2.00;;;;;19.24;68.80;99664.34;5013656;28;8824;-70
2023/09/21 02:08:17;;;;;;;;;2.75;2.75;;;;;19.17;68.93;99650.19;4994811;28;8835;-69
2023/09/21 02:10:50;;;;;;;;;3.00;2.00;;;;;19.20;68.70;99663.28;5013575;28;8866;-70
2023/09/21 02:13:17;;;;;;;;;4.75;2.25;;;;;19.27;68.81;99661.03;4995471;28;8862;-69
2023/09/21 02:15:44;;;;;;;;;2.00;2.00;;;;;19.24;68.71;99667.09;5012388;28;8915;-69
2023/09/21 02:18:11;;;;;;;;;2.50;2.50;;;;;19.24;68.67;99666.25;4995537;28;8958;-70
2023/09/21 02:20:50;;;;;;;;;2.00;2.00;;;;;19.27;68.54;99663.78;4998541;28;8835;-69
2023/09/21 02:23:22;;;;;;;;;2.00;2.00;;;;;19.26;68.70;99664.06;5004521;28;8818;-69
2023/09/21 02:25:49;;;;;;;;;1.25;1.25;;;;;19.24;68.60;99653.44;5008155;28;8829;-69
2023/09/21 02:28:15;;;;;;;;;1.25;1.25;;;;;19.26;68.50;99664.06;5010178;28;8838;-70
2023/09/21 02:30:47;;;;;;;;;3.00;2.25;;;;;19.27;68.72;99660.22;4995475;28;9614;-69
2023/09/21 02:33:18;;;;;;;;;1.00;1.00;;;;;19.29;68.58;99666.25;4993572;28;9635;-69
2023/09/21 02:35:46;;;;;;;;;1.50;1.50;;;;;19.30;68.63;99665.13;4995463;28;8970;-70
2023/09/21 02:38:17;;;;;;;;;4.00;3.00;;;;;19.31;68.64;99672.22;4995123;28;8940;-69
2023/09/21 02:40:45;;;;;;;;;3.00;2.50;;;;;19.30;68.54;99684.25;4978835;28;8927;-70
2023/09/21 02:43:13;;;;;;;;;2.00;2.00;;;;;19.29;68.59;99692.72;4986318;28;8859;-69
2023/09/21 02:45:39;;;;;;;;;3.00;3.00;;;;;19.19;68.94;99686.19;4998343;28;8960;-69
2023/09/21 02:48:08;;;;;;;;;2.25;2.25;;;;;19.19;69.13;99685.38;4989324;28;8926;-69
2023/09/21 02:50:35;;;;;;;;;2.00;2.00;;;;;19.18;69.63;99678.28;4994271;28;8835;-70
2023/09/21 02:53:08;;;;;;;;;2.00;1.50;;;;;19.19;69.84;99683.47;4995380;28;8849;-70
2023/09/21 02:55:36;;;;;;;;;3.00;3.00;;;;;19.13;70.57;99672.88;4988077;28;8849;-69
2023/09/21 02:58:10;;;;;;;;;2.25;2.00;;;;;19.13;70.90;99681.84;4994901;28;8857;-69
2023/09/21 03:00:49;;;;;;;;;5.25;2.00;;;;;19.17;71.08;99668.47;5013404;28;8835;-70
2023/09/21 03:03:19;;;;;;;;;4.50;2.00;;;;;19.18;71.48;99660.00;5008153;28;8949;-70
2023/09/21 03:05:48;;;;;;;;;2.75;2.75;;;;;19.14;72.13;99653.47;4995167;28;8838;-69
2023/09/21 03:08:17;;;;;;;;;2.50;2.50;;;;;19.12;72.69;99639.31;5001134;28;8902;-70
2023/09/21 03:10:49;;;;;;;;;2.00;2.00;;;;;19.15;72.83;99637.94;4993917;28;8823;-70
2023/09/21 03:13:18;;;;;;;;;2.50;2.50;;;;;19.14;72.91;99628.13;5007514;28;8845;-70
2023/09/21 03:15:50;;;;;;;;;1.75;1.75;;;;;19.13;73.14;99632.75;5020694;28;8827;-69
2023/09/21 03:18:18;;;;;;;;;4.00;2.50;;;;;19.13;73.31;99632.75;4988212;28;8884;-70
2023/09/21 03:20:48;;;;;;;;;4.00;3.75;;;;;19.12;73.44;99625.69;4996907;28;8825;-70
2023/09/21 03:23:15;;;;;;;;;2.50;2.50;;;;;19.12;73.46;99633.88;4989907;28;8869;-70
2023/09/21 03:25:44;;;;;;;;;1.00;1.00;;;;;19.13;73.54;99637.41;4994016;28;8827;-70
2023/09/21 03:28:14;;;;;;;;;2.75;2.75;;;;;19.11;73.71;99634.94;4977663;28;8834;-70
2023/09/21 03:30:40;;;;;;;;;3.00;3.00;;;;;19.12;73.73;99633.03;4994624;28;8857;-70
2023/09/21 03:33:09;;;;;;;;;1.00;1.00;;;;;19.13;73.43;99645.59;4987366;28;8852;-70
2023/09/21 03:35:37;;;;;;;;;2.25;1.75;;;;;19.14;73.74;99644.47;5016064;28;8954;-70
2023/09/21 03:38:06;;;;;;;;;1.75;1.75;;;;;19.14;73.85;99648.03;4985281;28;8909;-70
2023/09/21 03:40:33;;;;;;;;;2.00;2.00;;;;;19.15;74.03;99648.84;4994416;28;8843;-71
2023/09/21 03:43:00;;;;;;;;;2.00;2.00;;;;;19.15;74.39;99651.56;5010418;28;8861;-70
2023/09/21 03:45:27;;;;;;;;;1.50;1.50;;;;;19.14;74.70;99652.66;5011711;28;8831;-70
2023/09/21 03:47:54;;;;;;;;;2.50;2.50;;;;;19.13;75.05;99649.13;4975748;28;8859;-69
2023/09/21 03:50:25;;;;;;;;;2.25;2.00;;;;;19.10;75.35;99644.22;4995370;28;9669;-70
2023/09/21 03:52:55;;;;;;;;;1.50;1.50;;;;;19.07;75.95;99638.50;5001940;28;8835;-70
2023/09/21 03:55:21;;;;;;;;;1.67;1.67;;;;;19.05;76.28;99636.06;4993852;28;8946;-70
2023/09/21 03:57:48;;;;;;;;;2.00;2.00;;;;;19.03;76.19;99636.34;4993936;28;8851;-69
2023/09/21 04:03:06;;;;;;;;;2.00;2.00;;;;;18.99;76.82;99632.53;5006680;28;8900;-69
2023/09/21 04:05:36;;;;;;;;;1.50;1.50;;;;;18.97;76.84;99629.28;5007626;28;8889;-70
2023/09/21 04:08:04;;;;;;;;;2.00;2.00;;;;;18.96;76.95;99624.94;4993529;28;8901;-70
2023/09/21 04:10:32;;;;;;;;;2.75;1.00;;;;;18.93;77.19;99630.13;4995941;28;8842;-70
2023/09/21 04:12:59;;;;;;;;;1.00;1.00;;;;;18.90;77.30;99625.22;4996989;28;8843;-70
2023/09/21 04:15:27;;;;;;;;;1.00;1.00;;;;;18.89;77.55;99623.59;4976228;28;8854;-70
2023/09/21 04:17:55;;;;;;;;;1.75;1.75;;;;;18.80;77.56;99619.78;4987260;28;8863;-69
2023/09/21 04:20:22;;;;;;;;;3.00;2.50;;;;;18.74;77.83;99621.72;4989124;28;8837;-69
2023/09/21 04:22:52;;;;;;;;;1.00;1.00;;;;;18.71;78.23;99609.47;5008777;28;8950;-70
2023/09/21 04:25:19;;;;;;;;;2.75;2.00;;;;;18.69;77.78;99617.09;4993186;28;8855;-69
2023/09/21 04:27:51;;;;;;;;;1.00;1.00;;;;;18.67;77.96;99618.44;4991576;28;8875;-69
2023/09/21 04:30:21;;;;;;;;;1.50;1.50;;;;;18.67;78.10;99613.00;4987876;28;8867;-69
2023/09/21 04:32:50;;;;;;;;;1.25;1.00;;;;;18.70;78.32;99610.56;4993459;28;8850;-69
2023/09/21 04:35:19;;;;;;;;;1.00;1.00;;;;;18.73;78.03;99614.66;4990637;28;9586;-70
2023/09/21 04:37:50;;;;;;;;;2.00;2.00;;;;;18.73;77.93;99615.47;5006698;28;8897;-69
2023/09/21 04:40:17;;;;;;;;;2.00;2.00;;;;;18.72;77.85;99615.75;5000451;28;8839;-70
2023/09/21 04:42:46;;;;;;;;;2.25;1.75;;;;;18.72;78.24;99615.75;5008272;28;8912;-70
2023/09/21 04:45:18;;;;;;;;;2.00;2.00;;;;;18.70;78.04;99616.03;5007645;28;8823;-70
2023/09/21 04:47:53;;;;;;;;;1.00;1.00;;;;;18.72;78.16;99610.31;5014464;28;8825;-70
2023/09/21 04:50:21;;;;;;;;;2.75;2.75;;;;;18.61;78.41;99600.50;4996970;28;8868;-70
2023/09/21 04:52:48;;;;;;;;;3.00;1.50;;;;;18.59;79.02;99598.03;4997423;28;8895;-69
2023/09/21 04:55:18;;;;;;;;;2.00;2.00;;;;;18.56;79.08;99611.41;4991421;28;8846;-69
2023/09/21 04:57:46;;;;;;;;;6.50;4.75;;;;;18.54;79.61;99611.69;5007124;28;9562;-69
2023/09/21 05:00:14;;;;;;;;;7.25;6.25;;;;;18.56;79.86;99611.41;4992972;28;8827;-70
2023/09/21 05:02:44;;;;;;;;;3.00;3.00;;;;;18.57;80.15;99608.41;5009455;28;8866;-70
2023/09/21 05:05:17;;;;;;;;;2.75;2.00;;;;;18.56;80.31;99608.69;4980560;28;8949;-69
2023/09/21 05:07:43;;;;;;;;;2.00;2.00;;;;;18.54;80.53;99604.31;5010594;28;8843;-69
2023/09/21 05:10:12;;;;;;;;;2.50;2.25;;;;;18.57;80.76;99615.78;4973117;28;8859;-69
2023/09/21 05:12:39;;;;;;;;;2.00;2.00;;;;;18.53;80.81;99602.69;4992689;28;8843;-69
2023/09/21 05:15:06;;;;;;;;;3.00;1.00;;;;;18.51;80.82;99606.78;4995202;28;8835;-69
2023/09/21 05:17:36;;;;;;;;;3.50;3.00;;;;;18.47;81.10;99594.78;5006704;28;8827;-69
2023/09/21 05:20:06;;;;;;;;;3.50;3.50;;;;;18.46;81.41;99599.44;5009377;28;8819;-72
2023/09/21 05:22:33;;;;;;;;;3.00;3.00;;;;;18.49;81.51;99600.78;5014351;28;8909;-69
2023/09/21 05:25:01;;;;;;;;;1.25;1.25;;;;;18.51;81.57;99595.88;4987586;28;8845;-69
2023/09/21 05:27:30;;;;;;;;;1.75;1.75;;;;;18.51;81.57;99598.59;4995903;28;8843;-70
2023/09/21 05:29:58;;;;;;;;;4.00;3.25;;;;;18.52;81.67;99605.69;5014006;28;8835;-70
2023/09/21 05:32:26;;;;;;;;;2.25;2.25;;;;;18.49;81.84;99600.78;5012191;28;8843;-69
2023/09/21 05:34:53;;;;;;;;;3.75;3.75;;;;;18.45;81.80;99600.53;5014057;28;8846;-70
2023/09/21 05:37:20;;;;;;;;;2.50;2.50;;;;;18.39;82.33;99595.34;5003245;28;8878;-69
2023/09/21 05:39:48;;;;;;;;;1.00;1.00;;;;;18.35;82.52;99605.19;5014124;28;8843;-69
2023/09/21 05:42:15;;;;;;;;;1.00;1.00;;;;;18.31;82.53;99609.53;4995594;28;8846;-69
2023/09/21 05:44:43;;;;;;;;;2.50;2.50;;;;;18.25;82.91;99614.19;5009924;28;8959;-69
2023/09/21 05:47:10;;;;;;;;;2.25;2.25;;;;;18.19;82.79;99620.72;5009093;28;8965;-69
2023/09/21 05:49:37;;;;;;;;;3.25;3.25;;;;;18.11;82.96;99643.91;4997351;28;8859;-68
2023/09/21 05:52:08;;;;;;;;;3.50;3.00;;;;;18.00;82.86;99658.63;5012887;28;8823;-68
2023/09/21 05:54:35;;;;;;;;;1.00;0.00;;;;;17.83;82.74;99671.69;5004980;28;8957;-69
2023/09/21 05:57:04;;;;;;;;;0.00;0.00;;;;;17.60;82.29;99675.69;5011281;28;9573;-68
2023/09/21 05:59:31;;;;;;;;;0.75;0.00;;;;;17.45;82.51;99688.16;4991707;28;8852;-68
2023/09/21 06:01:58;;;;;;;;;0.00;0.00;;;;;17.34;82.28;99688.38;5010733;28;8908;-69
2023/09/21 06:04:24;;;;;;;;;0.00;0.00;;;;;17.26;82.31;99689.75;5013339;28;8811;-69
2023/09/21 06:06:54;;;;;;;;;0.00;0.00;;;;;17.24;81.96;99691.91;5015244;28;8838;-68
2023/09/21 06:09:22;;;;;;;;;0.00;0.00;;;;;17.24;82.02;99695.44;5009887;28;8956;-69
2023/09/21 06:11:50;;;;;;;;;0.00;0.00;;;;;17.26;81.79;99689.75;5013087;28;8842;-70
2023/09/21 06:14:18;;;;;;;;;0.00;0.00;;;;;17.27;81.85;99691.38;5024865;23;8872;-69
2023/09/21 06:16:45;;;;;;;;;0.00;0.00;;;;;17.30;81.71;99707.97;5028300;28;8845;-70
2023/09/21 06:19:12;;;;;;;;;0.00;0.00;;;;;17.32;81.48;99709.59;5027298;28;8840;-68
2023/09/21 06:21:42;;;;;;;;;0.25;0.25;;;;;17.33;81.50;99708.53;5031314;28;8879;-67
2023/09/21 06:24:10;;;;;;;;;0.00;0.00;;;;;17.32;81.74;99709.59;5023383;28;8835;-69
2023/09/21 06:26:37;;;;;;;;;0.00;0.00;;;;;17.30;81.57;99697.09;5026439;28;8821;-70
2023/09/21 06:29:04;;;;;;;;;0.00;0.00;;;;;17.33;81.68;99700.34;5011655;28;8843;-70
2023/09/21 06:31:31;;;;;;;;;0.00;0.00;;;;;17.33;81.71;99706.59;5003088;28;8833;-69
2023/09/21 06:33:58;;;;;;;;;1.00;0.00;;;;;17.31;81.49;99697.91;5011603;28;8942;-69
2023/09/21 06:36:28;;;;;;;;;0.00;0.00;;;;;17.33;81.59;99694.91;5010390;28;8855;-70
2023/09/21 06:38:59;;;;;;;;;0.00;0.00;;;;;17.35;81.77;99687.31;5012640;28;8835;-70
2023/09/21 06:41:26;;;;;;;;;0.00;0.00;;;;;17.32;81.97;99680.50;5000022;28;8833;-70
2023/09/21 06:43:53;;;;;;;;;0.00;0.00;;;;;17.34;82.09;99685.66;4975574;28;9096;-69
2023/09/21 06:46:20;;;;;;;;;0.00;0.00;;;;;17.34;81.73;99686.50;4992662;28;8849;-70
2023/09/21 06:48:46;;;;;;;;;0.00;0.00;;;;;17.36;81.78;99687.03;5004080;28;8823;-70
2023/09/21 06:51:13;;;;;;;;;0.00;0.00;;;;;17.38;81.97;99697.66;5023971;28;8894;-69
2023/09/21 06:53:40;;;;;;;;;0.00;0.00;;;;;17.39;82.01;99702.03;5020881;28;8856;-69
2023/09/21 06:56:06;;;;;;;;;0.00;0.00;;;;;17.40;81.96;99711.81;5023426;28;8845;-70
2023/09/21 06:58:35;;;;;;;;;0.00;0.00;;;;;17.38;81.79;99708.53;5010890;28;8953;-68
2023/09/21 07:01:05;;;;;;;;;0.75;0.00;;;;;17.37;81.87;99704.19;5011312;28;8835;-70
2023/09/21 07:03:32;;;;;;;;;0.75;0.00;;;;;17.36;82.00;99687.03;5011290;28;8834;-69
2023/09/21 07:05:59;;;;;;;;;0.00;0.00;;;;;17.36;82.22;99678.88;4993670;28;8858;-69
2023/09/21 07:08:26;;;;;;;;;1.50;0.00;;;;;17.35;82.22;99688.13;5011507;28;8866;-70
2023/09/21 07:10:53;;;;;;;;;0.00;0.00;;;;;17.34;82.04;99691.09;5009485;28;8835;-70
2023/09/21 07:13:20;;;;;;;;;0.00;0.00;;;;;17.35;82.03;99695.47;4993955;28;8800;-70
2023/09/21 07:15:52;;;;;;;;;0.00;0.00;;;;;17.34;82.02;99701.97;5008573;28;8851;-70
2023/09/21 07:18:20;;;;;;;;;0.00;0.00;;;;;17.31;81.77;99708.78;5009087;28;9558;-70
2023/09/21 07:20:47;;;;;;;;;1.00;1.00;;;;;17.32;81.66;99717.78;5010836;28;8823;-70
2023/09/21 07:23:13;;;;;;;;;0.00;0.00;;;;;17.30;81.80;99718.84;5011268;28;9530;-69
2023/09/21 07:25:40;;;;;;;;;1.00;0.00;;;;;17.28;82.09;99725.63;5010341;28;8854;-70
2023/09/21 07:28:06;;;;;;;;;0.00;0.00;;;;;17.27;82.49;99721.28;5008830;28;8831;-70
2023/09/21 07:30:35;;;;;;;;;0.00;0.00;;;;;17.23;82.40;99723.72;5011439;28;8842;-69
2023/09/21 07:33:02;;;;;;;;;0.00;0.00;;;;;17.25;82.75;99731.59;4975164;28;9701;-69
2023/09/21 07:35:29;;;;;;;;;0.00;0.00;;;;;17.26;82.82;99728.63;4991628;28;9703;-70
2023/09/21 07:37:55;;;;;;;;;0.00;0.00;;;;;17.27;82.51;99732.16;4996475;28;8875;-70
2023/09/21 07:40:24;;;;;;;;;0.00;0.00;;;;;17.25;83.11;99734.31;5017592;28;8821;-69
2023/09/21 07:42:51;;;;;;;;;0.00;0.00;;;;;17.22;82.82;99735.69;5012827;28;8842;-70
2023/09/21 07:45:20;;;;;;;;;0.75;0.75;;;;;17.22;82.81;99740.31;5002230;28;8843;-70
2023/09/21 07:47:47;;;;;;;;;0.25;0.25;;;;;17.20;83.54;99750.63;5026363;28;8833;-71
2023/09/21 07:50:18;;;;;;;;;1.00;0.00;;;;;17.16;82.91;99741.34;5006648;28;8833;-68
2023/09/21 07:52:45;;;;;;;;;0.00;0.00;;;;;17.16;83.41;99749.50;5031469;28;8848;-70
2023/09/21 07:55:13;;;;;;;;;0.00;0.00;;;;;17.16;83.08;99754.94;5031250;28;8852;-70
2023/09/21 07:57:40;;;;;;;;;0.50;0.00;;;;;17.14;83.36;99746.25;5026237;28;8930;-70
2023/09/21 08:00:10;;;;;;;;;0.00;0.00;;;;;17.12;83.36;99751.13;4977786;28;9640;-70
2023/09/21 08:02:37;;;;;;;;;0.00;0.00;;;;;17.10;83.48;99756.84;4993836;28;8839;-70
2023/09/21 08:05:09;;;;;;;;;0.00;0.00;;;;;17.11;83.30;99752.22;4993622;28;8858;-70
2023/09/21 08:07:36;;;;;;;;;0.00;0.00;;;;;17.05;83.00;99745.91;5011140;28;8823;-71
2023/09/21 08:10:03;;;;;;;;;0.00;0.00;;;;;17.02;83.09;99765.50;5011303;28;8897;-69
2023/09/21 08:12:30;;;;;;;;;0.75;0.00;;;;;17.05;82.93;99763.06;5011191;28;8832;-70
2023/09/21 08:14:58;;;;;;;;;0.00;0.00;;;;;17.07;83.08;99764.69;4979308;28;9591;-70
2023/09/21 08:17:24;;;;;;;;;42.75;38.25;;;;;17.10;83.04;99764.19;4991151;28;8963;-71
2023/09/21 08:19:51;;;;;;;;;97.00;79.25;;;;;17.09;82.93;99760.63;4990379;28;10286;-69
2023/09/21 08:22:18;;;;;;;;;80.00;63.00;;;;;17.10;82.85;99767.72;4973862;28;11713;-70
2023/09/21 08:24:45;;;;;;;;;80.00;59.75;;;;;17.10;83.57;99773.16;4973756;28;11643;-70
2023/09/21 08:27:11;;;;;;;;;57.50;42.50;;;;;17.11;83.07;99774.78;4995355;28;11482;-70
2023/09/21 08:29:39;;;;;;;;;37.00;32.00;;;;;17.09;83.07;99767.97;5008708;28;10471;-71
2023/09/21 08:32:06;;;;;;;;;10.00;9.33;;;;;17.09;82.78;99790.53;4991021;28;9715;-70
2023/09/21 08:34:33;;;;;;;;;5.50;3.50;;;;;17.09;82.90;99793.25;4973743;28;8977;-70
2023/09/21 08:37:00;;;;;;;;;2.00;1.25;;;;;17.12;83.14;99800.06;4990799;28;8833;-70
2023/09/21 08:39:26;;;;;;;;;1.00;1.00;;;;;17.12;83.36;99790.00;4991088;28;8852;-71
2023/09/21 08:41:53;;;;;;;;;0.75;0.75;;;;;17.13;83.50;99783.47;4991269;28;8907;-70
2023/09/21 08:44:21;;;;;;;;;0.00;0.00;;;;;17.16;83.24;99772.09;4991242;28;8849;-70
2023/09/21 08:46:47;;;;;;;;;0.50;0.50;;;;;17.16;83.28;99772.09;4974746;28;8849;-70
2023/09/21 08:49:15;;;;;;;;;0.00;0.00;;;;;17.15;83.60;99778.63;5021635;28;8890;-70
2023/09/21 08:51:42;;;;;;;;;0.50;0.50;;;;;17.16;83.95;99766.66;5001250;28;8841;-70
2023/09/21 08:54:11;;;;;;;;;0.50;0.00;;;;;17.16;83.42;99774.00;5020174;28;8837;-71
2023/09/21 08:56:41;;;;;;;;;0.00;0.00;;;;;17.15;83.78;99786.78;5021778;28;8832;-70
2023/09/21 08:59:08;;;;;;;;;0.25;0.25;;;;;17.16;83.80;99793.84;5030223;28;8848;-70
2023/09/21 09:01:35;;;;;;;;;0.50;0.50;;;;;17.18;84.05;99782.72;5028966;28;8848;-70
2023/09/21 09:04:02;;;;;;;;;0.75;0.75;;;;;17.15;83.46;99781.34;4992886;28;10054;-71
2023/09/21 09:06:29;;;;;;;;;0.00;0.00;;;;;17.11;84.06;99784.84;5009329;28;8823;-71
2023/09/21 09:08:56;;;;;;;;;1.00;1.00;;;;;17.09;84.12;99787.00;5010169;28;8877;-70
2023/09/21 09:11:36;;;;;;;;;0.00;0.00;;;;;17.07;83.81;99776.41;5014841;28;8846;-70
2023/09/21 09:14:04;;;;;;;;;2.00;0.00;;;;;17.07;84.67;99776.41;5023149;28;8826;-71
2023/09/21 09:16:31;;;;;;;;;0.50;0.00;;;;;17.09;84.34;99774.22;5024980;28;8841;-70
2023/09/21 09:18:58;;;;;;;;;0.00;0.00;;;;;17.09;84.49;99776.13;5017161;28;8954;-70
2023/09/21 09:21:25;;;;;;;;;0.00;0.00;;;;;17.07;84.44;99767.41;5010259;28;8831;-70
2023/09/21 09:23:52;;;;;;;;;0.50;0.50;;;;;17.04;84.37;99785.88;5000945;28;8845;-69
2023/09/21 09:26:19;;;;;;;;;0.00;0.00;;;;;17.02;84.74;99788.06;4994102;28;8831;-70
2023/09/21 09:28:46;;;;;;;;;0.00;0.00;;;;;17.04;84.86;99782.34;5010530;28;8841;-70
2023/09/21 09:31:12;;;;;;;;;0.50;0.50;;;;;17.03;84.55;99795.13;4992004;28;8855;-70
2023/09/21 09:33:39;;;;;;;;;0.50;0.00;;;;;17.03;84.51;99802.47;4990372;28;8909;-71
2023/09/21 09:36:06;;;;;;;;;0.00;0.00;;;;;17.02;84.42;99806.28;5005509;28;8853;-69
2023/09/21 09:38:33;;;;;;;;;0.00;0.00;;;;;17.02;84.77;99809.00;5014992;28;8867;-69
2023/09/21 09:41:06;;;;;;;;;0.25;0.00;;;;;17.00;85.10;99806.53;5024138;28;8914;-70
2023/09/21 09:43:38;;;;;;;;;0.75;0.75;;;;;16.99;84.87;99812.22;4994717;28;8912;-70
2023/09/21 09:46:08;;;;;;;;;1.00;1.00;;;;;16.98;84.73;99833.16;5009718;28;8825;-69
2023/09/21 09:48:37;;;;;;;;;1.00;0.00;;;;;16.97;85.22;99836.94;5009861;28;8831;-71
2023/09/21 09:51:09;;;;;;;;;0.00;0.00;;;;;16.99;85.20;99837.50;4985722;28;8841;-70
2023/09/21 09:53:38;;;;;;;;;0.25;0.25;;;;;17.00;85.53;99828.28;4987021;28;8885;-69
2023/09/21 09:56:09;;;;;;;;;0.00;0.00;;;;;17.00;85.12;99827.47;4982956;28;8971;-71
2023/09/21 09:58:42;;;;;;;;;0.00;0.00;;;;;17.00;85.31;99822.84;5013686;28;8858;-70
2023/09/21 10:01:09;;;;;;;;;1.00;0.00;;;;;17.01;85.60;99807.34;4988747;28;8839;-70
2023/09/21 10:03:38;;;;;;;;;0.25;0.25;;;;;16.98;85.41;99819.56;5004062;28;8851;-71
2023/09/21 10:06:09;;;;;;;;;0.25;0.25;;;;;16.95;84.85;99819.28;5000791;28;8841;-70
2023/09/21 10:08:39;;;;;;;;;1.00;0.00;;;;;16.94;85.16;99823.06;4976247;28;8876;-71
2023/09/21 10:11:07;;;;;;;;;0.00;0.00;;;;;16.93;85.02;99832.28;4976179;28;8891;-71
2023/09/21 10:13:51;;;;;;;;;0.00;0.00;;;;;16.93;84.94;99837.72;4993598;28;8867;-70
2023/09/21 10:16:19;;;;;;;;;0.00;0.00;;;;;16.91;85.18;99845.34;4993053;28;8911;-71
2023/09/21 10:18:53;;;;;;;;;0.00;0.00;;;;;16.90;85.07;99835.56;4975976;28;8849;-71
2023/09/21 10:21:23;;;;;;;;;1.00;1.00;;;;;16.84;85.05;99853.69;4993452;28;8821;-69
2023/09/21 10:24:03;;;;;;;;;0.50;0.00;;;;;16.81;85.14;99856.94;4995481;28;8829;-70
2023/09/21 10:26:33;;;;;;;;;1.00;1.00;;;;;16.79;85.04;99859.09;5011162;28;8851;-70
2023/09/21 10:29:04;;;;;;;;;0.00;0.00;;;;;16.73;84.98;99862.84;4993382;28;8859;-71
2023/09/21 10:32:00;;;;;;;;;0.00;0.00;;;;;16.75;85.03;99861.53;4993249;28;8843;-70
2023/09/21 10:34:29;;;;;;;;;0.00;0.00;;;;;16.75;85.59;99861.53;4991681;28;8841;-70
2023/09/21 10:37:10;;;;;;;;;0.00;0.00;;;;;16.77;85.27;99850.38;4975294;28;8861;-70
2023/09/21 10:39:39;;;;;;;;;0.75;0.00;;;;;16.73;85.09;99850.09;4994277;28;8968;-69
2023/09/21 10:42:06;;;;;;;;;0.00;0.00;;;;;16.73;85.45;99847.38;4993101;28;8849;-70
2023/09/21 10:45:07;;;;;;;;;0.25;0.25;;;;;16.75;85.29;99838.97;4993783;28;8969;-69
2023/09/21 10:47:41;;;;;;;;;0.00;0.00;;;;;16.75;85.50;99841.69;5012262;28;8811;-70
2023/09/21 10:50:13;;;;;;;;;0.00;0.00;;;;;16.74;85.10;99835.44;5012457;28;8850;-70
2023/09/21 10:52:42;;;;;;;;;3.33;3.33;;;;;16.73;85.33;99830.22;5012330;28;8851;-70
2023/09/21 10:55:12;;;;;;;;;0.00;0.00;;;;;16.72;85.56;99829.38;4997241;28;9805;-70
2023/09/21 10:57:40;;;;;;;;;0.00;0.00;;;;;16.73;85.37;99833.78;4992381;28;8837;-71
2023/09/21 11:00:08;;;;;;;;;0.00;0.00;;;;;16.69;85.06;99827.22;4984683;28;8853;-70
2023/09/21 11:02:40;;;;;;;;;0.00;0.00;;;;;16.69;85.42;99821.78;4975302;28;8903;-71
2023/09/21 11:05:07;;;;;;;;;0.00;0.00;;;;;16.69;85.49;99797.31;4975158;28;9580;-70
2023/09/21 11:07:34;;;;;;;;;0.00;0.00;;;;;16.68;85.18;99782.06;4992473;28;8829;-69
2023/09/21 11:10:02;;;;;;;;;0.00;0.00;;;;;16.69;85.45;99789.16;5002419;28;9682;-70
2023/09/21 11:12:30;;;;;;;;;0.00;0.00;;;;;16.70;85.72;99785.38;5017041;28;8831;-71
2023/09/21 11:14:57;;;;;;;;;0.00;0.00;;;;;16.75;85.43;99787.31;5016817;28;8815;-70
2023/09/21 11:17:23;;;;;;;;;1.00;0.00;;;;;16.73;85.13;99776.72;5019731;28;9657;-70
2023/09/21 11:19:50;;;;;;;;;0.00;0.00;;;;;16.72;85.48;99785.91;5015107;28;8859;-70
2023/09/21 11:22:17;;;;;;;;;0.00;0.00;;;;;16.74;85.10;99785.69;4989817;28;8837;-70
2023/09/21 11:24:43;;;;;;;;;0.00;0.00;;;;;16.75;85.23;99777.28;5023612;28;8833;-70
2023/09/21 11:27:10;;;;;;;;;0.50;0.25;;;;;16.77;85.16;99780.56;4993017;28;8835;-70
2023/09/21 11:29:39;;;;;;;;;0.00;0.00;;;;;16.78;85.48;99781.38;5007945;28;8839;-70
2023/09/21 11:32:07;;;;;;;;;0.00;0.00;;;;;16.75;84.91;99782.72;4994472;28;8859;-70
2023/09/21 11:34:41;;;;;;;;;0.00;0.00;;;;;16.74;85.21;99781.06;4987775;28;8833;-71
2023/09/21 11:37:09;;;;;;;;;0.00;0.00;;;;;16.74;85.09;99791.13;5023109;28;8825;-71
2023/09/21 11:39:41;;;;;;;;;0.00;0.00;;;;;16.72;85.18;99796.78;5013502;28;8884;-70
2023/09/21 11:42:10;;;;;;;;;0.00;0.00;;;;;16.71;85.08;99795.16;5014026;28;8972;-71
2023/09/21 11:44:37;;;;;;;;;0.25;0.25;;;;;16.68;85.21;99784.78;5022617;28;8852;-70
2023/09/21 11:47:10;;;;;;;;;0.00;0.00;;;;;16.67;85.20;99775.00;4993382;28;8849;-71
2023/09/21 11:49:38;;;;;;;;;0.00;0.00;;;;;16.65;85.51;99768.19;4997110;28;9566;-70
2023/09/21 11:52:05;;;;;;;;;1.00;1.00;;;;;16.62;85.49;99755.16;5011719;28;8835;-69